sensor_id;sensor_type;location;lat;lon;timestamp;P1;durP1;ratioP1;P2;durP2;ratioP2
13455;SDS011;6800;50.940;6.940;2023-06-14T00:01:45;6.75;;;5.20;;
13455;SDS011;6800;50.940;6.940;2023-06-14T00:05:48;5.85;;;4.63;;
13455;SDS011;6800;50.940;6.940;2023-06-14T00:09:49;5.80;;;4.80;;
13455;SDS011;6800;50.940;6.940;2023-06-14T00:13:51;5.78;;;4.78;;
13455;SDS011;6800;50.940;6.940;2023-06-14T00:17:53;7.13;;;4.90;;
13455;SDS011;6800;50.940;6.940;2023-06-14T00:21:55;6.95;;;4.68;;
13455;SDS011;6800;50.940;6.940;2023-06-14T00:25:58;6.00;;;5.38;;
13455;SDS011;6800;50.940;6.940;2023-06-14T00:29:59;5.22;;;4.72;;
13455;SDS011;6800;50.940;6.940;2023-06-14T00:34:00;5.45;;;4.68;;
13455;SDS011;6800;50.940;6.940;2023-06-14T00:38:02;5.63;;;5.10;;
13455;SDS011;6800;50.940;6.940;2023-06-14T00:42:03;5.05;;;4.50;;
13455;SDS011;6800;50.940;6.940;2023-06-14T00:46:06;6.63;;;4.82;;
13455;SDS011;6800;50.940;6.940;2023-06-14T00:50:07;7.43;;;4.80;;
13455;SDS011;6800;50.940;6.940;2023-06-14T00:54:10;5.80;;;5.20;;
13455;SDS011;6800;50.940;6.940;2023-06-14T00:58:11;7.55;;;5.15;;
13455;SDS011;6800;50.940;6.940;2023-06-14T01:02:13;7.93;;;5.18;;
13455;SDS011;6800;50.940;6.940;2023-06-14T01:06:23;5.82;;;5.18;;
13455;SDS011;6800;50.940;6.940;2023-06-14T01:10:47;5.65;;;4.88;;
13455;SDS011;6800;50.940;6.940;2023-06-14T01:14:52;6.30;;;5.28;;
13455;SDS011;6800;50.940;6.940;2023-06-14T01:18:55;5.65;;;5.15;;
13455;SDS011;6800;50.940;6.940;2023-06-14T01:22:57;5.80;;;5.30;;
13455;SDS011;6800;50.940;6.940;2023-06-14T01:27:00;5.50;;;4.95;;
13455;SDS011;6800;50.940;6.940;2023-06-14T01:31:03;5.65;;;5.10;;
13455;SDS011;6800;50.940;6.940;2023-06-14T01:35:07;5.13;;;4.63;;
13455;SDS011;6800;50.940;6.940;2023-06-14T01:39:09;5.80;;;5.15;;
13455;SDS011;6800;50.940;6.940;2023-06-14T01:43:14;6.25;;;5.55;;
13455;SDS011;6800;50.940;6.940;2023-06-14T01:47:17;5.72;;;5.22;;
13455;SDS011;6800;50.940;6.940;2023-06-14T01:51:18;6.03;;;5.45;;
13455;SDS011;6800;50.940;6.940;2023-06-14T01:55:19;7.22;;;5.00;;
13455;SDS011;6800;50.940;6.940;2023-06-14T01:59:23;4.85;;;4.45;;
13455;SDS011;6800;50.940;6.940;2023-06-14T02:03:24;4.93;;;4.32;;
13455;SDS011;6800;50.940;6.940;2023-06-14T02:07:26;5.15;;;4.63;;
13455;SDS011;6800;50.940;6.940;2023-06-14T02:11:27;5.38;;;4.57;;
13455;SDS011;6800;50.940;6.940;2023-06-14T02:15:28;5.13;;;4.60;;
13455;SDS011;6800;50.940;6.940;2023-06-14T02:19:34;8.70;;;4.68;;
13455;SDS011;6800;50.940;6.940;2023-06-14T02:23:36;4.97;;;4.57;;
13455;SDS011;6800;50.940;6.940;2023-06-14T02:27:38;6.00;;;4.18;;
13455;SDS011;6800;50.940;6.940;2023-06-14T02:31:39;5.80;;;4.57;;
13455;SDS011;6800;50.940;6.940;2023-06-14T02:35:41;5.25;;;4.45;;
13455;SDS011;6800;50.940;6.940;2023-06-14T02:39:43;5.10;;;4.60;;
13455;SDS011;6800;50.940;6.940;2023-06-14T02:43:44;5.88;;;4.50;;
13455;SDS011;6800;50.940;6.940;2023-06-14T02:47:46;5.97;;;4.63;;
13455;SDS011;6800;50.940;6.940;2023-06-14T02:51:47;5.85;;;4.90;;
13455;SDS011;6800;50.940;6.940;2023-06-14T02:55:49;5.93;;;5.03;;
13455;SDS011;6800;50.940;6.940;2023-06-14T02:59:50;5.05;;;4.65;;
13455;SDS011;6800;50.940;6.940;2023-06-14T03:03:53;5.55;;;4.75;;
13455;SDS011;6800;50.940;6.940;2023-06-14T03:07:54;5.70;;;5.18;;
13455;SDS011;6800;50.940;6.940;2023-06-14T03:11:56;5.43;;;4.60;;
13455;SDS011;6800;50.940;6.940;2023-06-14T03:15:58;5.10;;;4.60;;
13455;SDS011;6800;50.940;6.940;2023-06-14T03:20:00;5.90;;;4.38;;
13455;SDS011;6800;50.940;6.940;2023-06-14T03:24:01;5.43;;;4.88;;
13455;SDS011;6800;50.940;6.940;2023-06-14T03:28:04;5.38;;;4.90;;
13455;SDS011;6800;50.940;6.940;2023-06-14T03:32:06;5.43;;;4.90;;
13455;SDS011;6800;50.940;6.940;2023-06-14T03:36:08;5.10;;;4.60;;
13455;SDS011;6800;50.940;6.940;2023-06-14T03:40:10;4.90;;;4.40;;
13455;SDS011;6800;50.940;6.940;2023-06-14T03:44:14;5.30;;;4.80;;
13455;SDS011;6800;50.940;6.940;2023-06-14T03:48:16;5.95;;;5.38;;
13455;SDS011;6800;50.940;6.940;2023-06-14T03:52:18;6.78;;;4.90;;
13455;SDS011;6800;50.940;6.940;2023-06-14T03:56:20;6.03;;;5.53;;
13455;SDS011;6800;50.940;6.940;2023-06-14T04:00:21;5.53;;;5.13;;
13455;SDS011;6800;50.940;6.940;2023-06-14T04:04:22;6.00;;;5.40;;
13455;SDS011;6800;50.940;6.940;2023-06-14T04:08:29;5.82;;;5.28;;
13455;SDS011;6800;50.940;6.940;2023-06-14T04:12:31;5.43;;;4.90;;
13455;SDS011;6800;50.940;6.940;2023-06-14T04:16:32;5.47;;;4.95;;
13455;SDS011;6800;50.940;6.940;2023-06-14T04:20:33;5.75;;;5.20;;
13455;SDS011;6800;50.940;6.940;2023-06-14T04:24:35;5.70;;;5.10;;
13455;SDS011;6800;50.940;6.940;2023-06-14T04:28:37;5.97;;;4.57;;
13455;SDS011;6800;50.940;6.940;2023-06-14T04:32:41;5.20;;;4.80;;
13455;SDS011;6800;50.940;6.940;2023-06-14T04:36:43;6.32;;;4.32;;
13455;SDS011;6800;50.940;6.940;2023-06-14T04:40:50;5.20;;;4.28;;
13455;SDS011;6800;50.940;6.940;2023-06-14T04:44:53;4.75;;;4.35;;
13455;SDS011;6800;50.940;6.940;2023-06-14T04:48:57;8.98;;;4.30;;
13455;SDS011;6800;50.940;6.940;2023-06-14T04:52:58;7.50;;;4.35;;
13455;SDS011;6800;50.940;6.940;2023-06-14T04:57:00;6.20;;;4.07;;
13455;SDS011;6800;50.940;6.940;2023-06-14T05:01:02;7.97;;;4.35;;
13455;SDS011;6800;50.940;6.940;2023-06-14T05:05:04;6.15;;;4.07;;
13455;SDS011;6800;50.940;6.940;2023-06-14T05:09:08;8.48;;;4.82;;
13455;SDS011;6800;50.940;6.940;2023-06-14T05:13:10;8.13;;;5.35;;
13455;SDS011;6800;50.940;6.940;2023-06-14T05:17:12;6.80;;;5.38;;
13455;SDS011;6800;50.940;6.940;2023-06-14T05:21:13;4.82;;;4.30;;
13455;SDS011;6800;50.940;6.940;2023-06-14T05:25:19;9.23;;;4.22;;
13455;SDS011;6800;50.940;6.940;2023-06-14T05:29:21;6.40;;;4.45;;
13455;SDS011;6800;50.940;6.940;2023-06-14T05:33:23;5.68;;;3.67;;
13455;SDS011;6800;50.940;6.940;2023-06-14T05:37:24;6.95;;;4.45;;
13455;SDS011;6800;50.940;6.940;2023-06-14T05:41:26;5.07;;;4.53;;
13455;SDS011;6800;50.940;6.940;2023-06-14T05:45:28;7.30;;;4.95;;
13455;SDS011;6800;50.940;6.940;2023-06-14T05:49:29;10.02;;;4.40;;
13455;SDS011;6800;50.940;6.940;2023-06-14T05:53:32;7.22;;;4.63;;
13455;SDS011;6800;50.940;6.940;2023-06-14T05:57:33;7.90;;;4.85;;
13455;SDS011;6800;50.940;6.940;2023-06-14T06:01:34;6.78;;;4.80;;
13455;SDS011;6800;50.940;6.940;2023-06-14T06:05:37;8.88;;;4.93;;
13455;SDS011;6800;50.940;6.940;2023-06-14T06:09:39;6.30;;;5.13;;
13455;SDS011;6800;50.940;6.940;2023-06-14T06:13:40;7.97;;;3.90;;
13455;SDS011;6800;50.940;6.940;2023-06-14T06:17:42;8.25;;;3.78;;
13455;SDS011;6800;50.940;6.940;2023-06-14T06:21:57;8.50;;;3.90;;
13455;SDS011;6800;50.940;6.940;2023-06-14T06:25:58;10.50;;;4.20;;
13455;SDS011;6800;50.940;6.940;2023-06-14T06:30:00;8.25;;;3.17;;
13455;SDS011;6800;50.940;6.940;2023-06-14T06:34:02;8.02;;;3.47;;
13455;SDS011;6800;50.940;6.940;2023-06-14T06:38:03;5.38;;;3.42;;
13455;SDS011;6800;50.940;6.940;2023-06-14T06:42:05;3.85;;;2.67;;
13455;SDS011;6800;50.940;6.940;2023-06-14T06:46:07;6.07;;;3.22;;
13455;SDS011;6800;50.940;6.940;2023-06-14T06:50:09;11.20;;;5.43;;
13455;SDS011;6800;50.940;6.940;2023-06-14T06:54:10;7.78;;;3.63;;
13455;SDS011;6800;50.940;6.940;2023-06-14T06:58:13;4.97;;;2.92;;
13455;SDS011;6800;50.940;6.940;2023-06-14T07:02:15;3.90;;;2.78;;
13455;SDS011;6800;50.940;6.940;2023-06-14T07:06:17;4.68;;;3.10;;
13455;SDS011;6800;50.940;6.940;2023-06-14T07:10:20;3.00;;;2.70;;
13455;SDS011;6800;50.940;6.940;2023-06-14T07:14:21;6.97;;;3.13;;
13455;SDS011;6800;50.940;6.940;2023-06-14T07:18:24;13.45;;;4.38;;
13455;SDS011;6800;50.940;6.940;2023-06-14T07:22:25;6.00;;;3.13;;
13455;SDS011;6800;50.940;6.940;2023-06-14T07:26:27;6.80;;;3.20;;
13455;SDS011;6800;50.940;6.940;2023-06-14T07:30:28;4.45;;;2.60;;
13455;SDS011;6800;50.940;6.940;2023-06-14T07:34:31;3.72;;;2.55;;
13455;SDS011;6800;50.940;6.940;2023-06-14T07:38:32;4.00;;;2.50;;
13455;SDS011;6800;50.940;6.940;2023-06-14T07:42:34;6.68;;;2.40;;
13455;SDS011;6800;50.940;6.940;2023-06-14T07:46:36;3.45;;;2.35;;
13455;SDS011;6800;50.940;6.940;2023-06-14T07:50:38;3.08;;;1.90;;
13455;SDS011;6800;50.940;6.940;2023-06-14T07:54:39;4.00;;;1.95;;
13455;SDS011;6800;50.940;6.940;2023-06-14T07:58:42;2.30;;;2.00;;
13455;SDS011;6800;50.940;6.940;2023-06-14T08:02:44;4.00;;;2.17;;
13455;SDS011;6800;50.940;6.940;2023-06-14T08:06:46;4.03;;;2.08;;
13455;SDS011;6800;50.940;6.940;2023-06-14T08:10:49;2.83;;;1.60;;
13455;SDS011;6800;50.940;6.940;2023-06-14T08:14:51;3.55;;;1.80;;
13455;SDS011;6800;50.940;6.940;2023-06-14T08:19:12;1.40;;;1.30;;
13455;SDS011;6800;50.940;6.940;2023-06-14T08:23:14;2.85;;;1.50;;
13455;SDS011;6800;50.940;6.940;2023-06-14T08:27:16;3.40;;;1.60;;
13455;SDS011;6800;50.940;6.940;2023-06-14T08:31:18;2.72;;;1.92;;
13455;SDS011;6800;50.940;6.940;2023-06-14T08:35:20;2.00;;;1.52;;
13455;SDS011;6800;50.940;6.940;2023-06-14T08:39:21;2.28;;;1.50;;
13455;SDS011;6800;50.940;6.940;2023-06-14T08:43:23;2.22;;;1.58;;
13455;SDS011;6800;50.940;6.940;2023-06-14T08:47:25;4.30;;;1.85;;
13455;SDS011;6800;50.940;6.940;2023-06-14T08:51:27;2.47;;;1.50;;
13455;SDS011;6800;50.940;6.940;2023-06-14T08:55:35;1.70;;;1.60;;
13455;SDS011;6800;50.940;6.940;2023-06-14T08:59:46;3.15;;;1.95;;
13455;SDS011;6800;50.940;6.940;2023-06-14T09:03:53;3.08;;;1.90;;
13455;SDS011;6800;50.940;6.940;2023-06-14T09:07:58;2.30;;;1.90;;
13455;SDS011;6800;50.940;6.940;2023-06-14T09:12:07;5.05;;;2.50;;
13455;SDS011;6800;50.940;6.940;2023-06-14T09:16:11;2.67;;;1.90;;
13455;SDS011;6800;50.940;6.940;2023-06-14T09:20:13;2.03;;;1.83;;
13455;SDS011;6800;50.940;6.940;2023-06-14T09:24:19;3.05;;;1.80;;
13455;SDS011;6800;50.940;6.940;2023-06-14T09:28:26;2.40;;;1.70;;
13455;SDS011;6800;50.940;6.940;2023-06-14T09:32:28;2.17;;;1.73;;
13455;SDS011;6800;50.940;6.940;2023-06-14T09:36:31;3.10;;;1.90;;
13455;SDS011;6800;50.940;6.940;2023-06-14T09:40:35;4.25;;;1.90;;
13455;SDS011;6800;50.940;6.940;2023-06-14T09:44:38;2.38;;;1.90;;
13455;SDS011;6800;50.940;6.940;2023-06-14T09:48:39;5.35;;;2.88;;
13455;SDS011;6800;50.940;6.940;2023-06-14T09:52:44;2.42;;;1.90;;
13455;SDS011;6800;50.940;6.940;2023-06-14T09:56:48;3.33;;;2.40;;
13455;SDS011;6800;50.940;6.940;2023-06-14T10:00:52;3.28;;;2.22;;
13455;SDS011;6800;50.940;6.940;2023-06-14T10:05:02;3.53;;;1.88;;
13455;SDS011;6800;50.940;6.940;2023-06-14T10:09:08;2.25;;;1.77;;
13455;SDS011;6800;50.940;6.940;2023-06-14T10:13:11;3.70;;;2.30;;
13455;SDS011;6800;50.940;6.940;2023-06-14T10:17:17;3.05;;;1.60;;
13455;SDS011;6800;50.940;6.940;2023-06-14T10:25:41;2.55;;;1.77;;
13455;SDS011;6800;50.940;6.940;2023-06-14T10:37:55;3.97;;;2.00;;
13455;SDS011;6800;50.940;6.940;2023-06-14T10:41:56;3.97;;;1.80;;
13455;SDS011;6800;50.940;6.940;2023-06-14T10:46:12;3.28;;;2.03;;
13455;SDS011;6800;50.940;6.940;2023-06-14T10:50:19;3.10;;;1.70;;
13455;SDS011;6800;50.940;6.940;2023-06-14T10:54:30;2.05;;;1.30;;
13455;SDS011;6800;50.940;6.940;2023-06-14T10:58:32;8.18;;;2.00;;
13455;SDS011;6800;50.940;6.940;2023-06-14T11:02:48;3.60;;;2.13;;
13455;SDS011;6800;50.940;6.940;2023-06-14T11:06:59;4.38;;;2.40;;
13455;SDS011;6800;50.940;6.940;2023-06-14T11:11:21;2.53;;;2.33;;
13455;SDS011;6800;50.940;6.940;2023-06-14T11:15:28;2.20;;;1.90;;
13455;SDS011;6800;50.940;6.940;2023-06-14T11:19:33;2.15;;;1.95;;
13455;SDS011;6800;50.940;6.940;2023-06-14T11:23:35;2.15;;;1.95;;
13455;SDS011;6800;50.940;6.940;2023-06-14T11:27:37;2.30;;;2.10;;
13455;SDS011;6800;50.940;6.940;2023-06-14T11:31:38;8.18;;;2.03;;
13455;SDS011;6800;50.940;6.940;2023-06-14T11:35:45;3.30;;;1.90;;
13455;SDS011;6800;50.940;6.940;2023-06-14T11:39:47;3.58;;;2.00;;
13455;SDS011;6800;50.940;6.940;2023-06-14T11:43:48;7.68;;;2.35;;
13455;SDS011;6800;50.940;6.940;2023-06-14T11:47:54;5.18;;;2.40;;
13455;SDS011;6800;50.940;6.940;2023-06-14T11:51:57;4.47;;;2.15;;
13455;SDS011;6800;50.940;6.940;2023-06-14T11:55:59;2.92;;;1.85;;
13455;SDS011;6800;50.940;6.940;2023-06-14T12:00:06;5.00;;;2.65;;
13455;SDS011;6800;50.940;6.940;2023-06-14T12:04:13;5.60;;;2.45;;
13455;SDS011;6800;50.940;6.940;2023-06-14T12:08:14;4.70;;;1.90;;
13455;SDS011;6800;50.940;6.940;2023-06-14T12:12:20;2.95;;;1.90;;
13455;SDS011;6800;50.940;6.940;2023-06-14T12:16:22;2.03;;;1.83;;
13455;SDS011;6800;50.940;6.940;2023-06-14T12:20:34;3.53;;;2.28;;
13455;SDS011;6800;50.940;6.940;2023-06-14T12:24:37;5.85;;;2.50;;
13455;SDS011;6800;50.940;6.940;2023-06-14T12:28:40;5.38;;;2.42;;
13455;SDS011;6800;50.940;6.940;2023-06-14T12:32:43;5.97;;;2.50;;
13455;SDS011;6800;50.940;6.940;2023-06-14T12:36:45;13.68;;;3.45;;
13455;SDS011;6800;50.940;6.940;2023-06-14T12:40:47;8.63;;;2.50;;
13455;SDS011;6800;50.940;6.940;2023-06-14T12:44:48;5.30;;;1.73;;
13455;SDS011;6800;50.940;6.940;2023-06-14T12:48:50;5.47;;;1.92;;
13455;SDS011;6800;50.940;6.940;2023-06-14T12:52:51;2.55;;;1.30;;
13455;SDS011;6800;50.940;6.940;2023-06-14T12:56:53;3.50;;;1.73;;
13455;SDS011;6800;50.940;6.940;2023-06-14T13:00:56;3.83;;;1.85;;
13455;SDS011;6800;50.940;6.940;2023-06-14T13:04:57;9.57;;;2.22;;
13455;SDS011;6800;50.940;6.940;2023-06-14T13:09:00;6.32;;;2.10;;
13455;SDS011;6800;50.940;6.940;2023-06-14T13:13:02;3.50;;;1.50;;
13455;SDS011;6800;50.940;6.940;2023-06-14T13:17:04;4.93;;;1.92;;
13455;SDS011;6800;50.940;6.940;2023-06-14T13:21:06;10.95;;;3.00;;
13455;SDS011;6800;50.940;6.940;2023-06-14T13:25:07;8.73;;;2.28;;
13455;SDS011;6800;50.940;6.940;2023-06-14T13:29:09;13.48;;;3.30;;
13455;SDS011;6800;50.940;6.940;2023-06-14T13:33:10;14.40;;;3.80;;
13455;SDS011;6800;50.940;6.940;2023-06-14T13:37:12;12.23;;;3.83;;
13455;SDS011;6800;50.940;6.940;2023-06-14T13:41:13;8.10;;;3.08;;
13455;SDS011;6800;50.940;6.940;2023-06-14T13:45:15;13.65;;;4.68;;
13455;SDS011;6800;50.940;6.940;2023-06-14T13:49:16;5.60;;;3.45;;
13455;SDS011;6800;50.940;6.940;2023-06-14T13:53:18;3.83;;;3.53;;
13455;SDS011;6800;50.940;6.940;2023-06-14T13:57:19;6.90;;;4.40;;
13455;SDS011;6800;50.940;6.940;2023-06-14T14:01:21;2.55;;;1.73;;
13455;SDS011;6800;50.940;6.940;2023-06-14T14:05:23;2.65;;;1.60;;
13455;SDS011;6800;50.940;6.940;2023-06-14T14:09:29;2.20;;;2.00;;
13455;SDS011;6800;50.940;6.940;2023-06-14T14:13:31;2.33;;;1.80;;
13455;SDS011;6800;50.940;6.940;2023-06-14T14:17:32;5.68;;;1.80;;
13455;SDS011;6800;50.940;6.940;2023-06-14T14:21:34;2.25;;;1.83;;
13455;SDS011;6800;50.940;6.940;2023-06-14T14:25:36;6.32;;;2.00;;
13455;SDS011;6800;50.940;6.940;2023-06-14T14:29:38;2.72;;;1.70;;
13455;SDS011;6800;50.940;6.940;2023-06-14T14:33:39;12.90;;;2.63;;
13455;SDS011;6800;50.940;6.940;2023-06-14T14:37:40;2.30;;;2.10;;
13455;SDS011;6800;50.940;6.940;2023-06-14T14:41:42;3.25;;;2.20;;
13455;SDS011;6800;50.940;6.940;2023-06-14T14:45:43;2.55;;;2.35;;
13455;SDS011;6800;50.940;6.940;2023-06-14T14:49:44;3.53;;;1.60;;
13455;SDS011;6800;50.940;6.940;2023-06-14T14:53:46;2.03;;;1.83;;
13455;SDS011;6800;50.940;6.940;2023-06-14T14:57:47;1.95;;;1.67;;
13455;SDS011;6800;50.940;6.940;2023-06-14T15:01:49;2.20;;;1.70;;
13455;SDS011;6800;50.940;6.940;2023-06-14T15:05:51;4.03;;;2.00;;
13455;SDS011;6800;50.940;6.940;2023-06-14T15:09:53;2.65;;;1.90;;
13455;SDS011;6800;50.940;6.940;2023-06-14T15:13:55;2.88;;;2.17;;
13455;SDS011;6800;50.940;6.940;2023-06-14T15:17:57;4.60;;;1.90;;
13455;SDS011;6800;50.940;6.940;2023-06-14T15:22:00;3.20;;;2.20;;
13455;SDS011;6800;50.940;6.940;2023-06-14T15:26:01;3.45;;;1.88;;
13455;SDS011;6800;50.940;6.940;2023-06-14T15:30:02;2.15;;;1.98;;
13455;SDS011;6800;50.940;6.940;2023-06-14T15:34:04;2.53;;;1.98;;
13455;SDS011;6800;50.940;6.940;2023-06-14T15:38:06;2.67;;;1.98;;
13455;SDS011;6800;50.940;6.940;2023-06-14T15:42:08;2.00;;;1.80;;
13455;SDS011;6800;50.940;6.940;2023-06-14T15:46:09;4.45;;;2.10;;
13455;SDS011;6800;50.940;6.940;2023-06-14T15:50:11;3.20;;;2.35;;
13455;SDS011;6800;50.940;6.940;2023-06-14T15:54:12;2.00;;;1.75;;
13455;SDS011;6800;50.940;6.940;2023-06-14T15:58:14;2.38;;;2.05;;
13455;SDS011;6800;50.940;6.940;2023-06-14T16:02:15;3.30;;;2.15;;
13455;SDS011;6800;50.940;6.940;2023-06-14T16:06:17;1.85;;;1.70;;
13455;SDS011;6800;50.940;6.940;2023-06-14T16:10:18;2.67;;;1.90;;
13455;SDS011;6800;50.940;6.940;2023-06-14T16:14:20;1.77;;;1.67;;
13455;SDS011;6800;50.940;6.940;2023-06-14T16:18:21;2.40;;;1.90;;
13455;SDS011;6800;50.940;6.940;2023-06-14T16:22:23;2.22;;;2.00;;
13455;SDS011;6800;50.940;6.940;2023-06-14T16:26:24;3.53;;;2.13;;
13455;SDS011;6800;50.940;6.940;2023-06-14T16:30:26;3.05;;;2.35;;
13455;SDS011;6800;50.940;6.940;2023-06-14T16:34:28;2.15;;;2.00;;
13455;SDS011;6800;50.940;6.940;2023-06-14T16:38:31;2.10;;;1.90;;
13455;SDS011;6800;50.940;6.940;2023-06-14T16:42:32;2.92;;;1.70;;
13455;SDS011;6800;50.940;6.940;2023-06-14T16:46:34;3.13;;;2.47;;
13455;SDS011;6800;50.940;6.940;2023-06-14T16:50:36;3.42;;;2.60;;
13455;SDS011;6800;50.940;6.940;2023-06-14T16:54:38;3.30;;;2.40;;
13455;SDS011;6800;50.940;6.940;2023-06-14T16:58:39;2.53;;;2.33;;
13455;SDS011;6800;50.940;6.940;2023-06-14T17:02:40;5.00;;;2.17;;
13455;SDS011;6800;50.940;6.940;2023-06-14T17:06:42;3.67;;;2.30;;
13455;SDS011;6800;50.940;6.940;2023-06-14T17:10:43;3.10;;;2.28;;
13455;SDS011;6800;50.940;6.940;2023-06-14T17:14:45;4.05;;;2.28;;
13455;SDS011;6800;50.940;6.940;2023-06-14T17:18:46;2.78;;;2.25;;
13455;SDS011;6800;50.940;6.940;2023-06-14T17:22:47;2.38;;;2.17;;
13455;SDS011;6800;50.940;6.940;2023-06-14T17:26:49;2.50;;;2.30;;
13455;SDS011;6800;50.940;6.940;2023-06-14T17:30:50;2.95;;;2.35;;
13455;SDS011;6800;50.940;6.940;2023-06-14T17:34:52;2.33;;;1.90;;
13455;SDS011;6800;50.940;6.940;2023-06-14T17:38:53;2.67;;;2.47;;
13455;SDS011;6800;50.940;6.940;2023-06-14T17:42:55;2.50;;;2.30;;
13455;SDS011;6800;50.940;6.940;2023-06-14T17:46:58;4.03;;;2.78;;
13455;SDS011;6800;50.940;6.940;2023-06-14T17:51:00;2.78;;;2.50;;
13455;SDS011;6800;50.940;6.940;2023-06-14T17:55:05;5.03;;;2.60;;
13455;SDS011;6800;50.940;6.940;2023-06-14T17:59:07;2.60;;;2.40;;
13455;SDS011;6800;50.940;6.940;2023-06-14T18:03:08;2.92;;;2.58;;
13455;SDS011;6800;50.940;6.940;2023-06-14T18:07:10;3.05;;;2.50;;
13455;SDS011;6800;50.940;6.940;2023-06-14T18:11:11;3.00;;;2.50;;
13455;SDS011;6800;50.940;6.940;2023-06-14T18:15:13;2.95;;;2.22;;
13455;SDS011;6800;50.940;6.940;2023-06-14T18:19:15;3.35;;;2.30;;
13455;SDS011;6800;50.940;6.940;2023-06-14T18:23:18;3.25;;;2.70;;
13455;SDS011;6800;50.940;6.940;2023-06-14T18:27:19;3.53;;;2.60;;
13455;SDS011;6800;50.940;6.940;2023-06-14T18:31:20;3.28;;;2.45;;
13455;SDS011;6800;50.940;6.940;2023-06-14T18:35:22;2.75;;;2.55;;
13455;SDS011;6800;50.940;6.940;2023-06-14T18:39:24;2.90;;;2.33;;
13455;SDS011;6800;50.940;6.940;2023-06-14T18:43:25;2.78;;;2.55;;
13455;SDS011;6800;50.940;6.940;2023-06-14T18:47:26;2.38;;;2.17;;
13455;SDS011;6800;50.940;6.940;2023-06-14T18:51:28;2.50;;;2.22;;
13455;SDS011;6800;50.940;6.940;2023-06-14T18:55:29;3.13;;;2.50;;
13455;SDS011;6800;50.940;6.940;2023-06-14T18:59:30;3.10;;;2.63;;
13455;SDS011;6800;50.940;6.940;2023-06-14T19:03:33;2.70;;;2.50;;
13455;SDS011;6800;50.940;6.940;2023-06-14T19:07:34;3.17;;;2.60;;
13455;SDS011;6800;50.940;6.940;2023-06-14T19:11:36;4.00;;;2.28;;
13455;SDS011;6800;50.940;6.940;2023-06-14T19:15:37;3.55;;;2.85;;
13455;SDS011;6800;50.940;6.940;2023-06-14T19:19:39;2.50;;;2.30;;
13455;SDS011;6800;50.940;6.940;2023-06-14T19:23:41;3.22;;;2.65;;
13455;SDS011;6800;50.940;6.940;2023-06-14T19:27:44;3.55;;;2.28;;
13455;SDS011;6800;50.940;6.940;2023-06-14T19:31:47;3.50;;;2.33;;
13455;SDS011;6800;50.940;6.940;2023-06-14T19:35:48;3.25;;;2.47;;
13455;SDS011;6800;50.940;6.940;2023-06-14T19:39:50;3.08;;;2.83;;
13455;SDS011;6800;50.940;6.940;2023-06-14T19:43:51;3.30;;;2.63;;
13455;SDS011;6800;50.940;6.940;2023-06-14T19:47:52;3.67;;;2.60;;
13455;SDS011;6800;50.940;6.940;2023-06-14T19:52:07;4.40;;;2.63;;
13455;SDS011;6800;50.940;6.940;2023-06-14T19:56:09;3.72;;;2.65;;
13455;SDS011;6800;50.940;6.940;2023-06-14T20:00:10;4.03;;;2.75;;
13455;SDS011;6800;50.940;6.940;2023-06-14T20:04:13;3.20;;;2.47;;
13455;SDS011;6800;50.940;6.940;2023-06-14T20:08:15;5.05;;;2.42;;
13455;SDS011;6800;50.940;6.940;2023-06-14T20:12:23;5.53;;;2.20;;
13455;SDS011;6800;50.940;6.940;2023-06-14T20:16:24;3.85;;;3.05;;
13455;SDS011;6800;50.940;6.940;2023-06-14T20:20:26;3.90;;;2.78;;
13455;SDS011;6800;50.940;6.940;2023-06-14T20:24:27;2.45;;;2.30;;
13455;SDS011;6800;50.940;6.940;2023-06-14T20:28:29;3.35;;;2.80;;
13455;SDS011;6800;50.940;6.940;2023-06-14T20:32:32;4.75;;;3.10;;
13455;SDS011;6800;50.940;6.940;2023-06-14T20:36:33;5.63;;;2.50;;
13455;SDS011;6800;50.940;6.940;2023-06-14T20:40:35;3.50;;;2.40;;
13455;SDS011;6800;50.940;6.940;2023-06-14T20:44:38;4.78;;;2.22;;
13455;SDS011;6800;50.940;6.940;2023-06-14T20:48:42;3.97;;;2.65;;
13455;SDS011;6800;50.940;6.940;2023-06-14T20:52:43;2.55;;;2.33;;
13455;SDS011;6800;50.940;6.940;2023-06-14T20:56:45;2.83;;;2.63;;
13455;SDS011;6800;50.940;6.940;2023-06-14T21:00:46;2.50;;;2.30;;
13455;SDS011;6800;50.940;6.940;2023-06-14T21:04:48;2.58;;;2.38;;
13455;SDS011;6800;50.940;6.940;2023-06-14T21:08:49;3.13;;;2.35;;
13455;SDS011;6800;50.940;6.940;2023-06-14T21:12:51;2.50;;;2.30;;
13455;SDS011;6800;50.940;6.940;2023-06-14T21:16:55;4.78;;;2.40;;
13455;SDS011;6800;50.940;6.940;2023-06-14T21:20:57;2.83;;;2.60;;
13455;SDS011;6800;50.940;6.940;2023-06-14T21:24:58;4.72;;;3.33;;
13455;SDS011;6800;50.940;6.940;2023-06-14T21:29:00;3.80;;;3.55;;
13455;SDS011;6800;50.940;6.940;2023-06-14T21:33:02;3.97;;;3.55;;
13455;SDS011;6800;50.940;6.940;2023-06-14T21:37:05;3.60;;;3.30;;
13455;SDS011;6800;50.940;6.940;2023-06-14T21:41:06;3.97;;;3.67;;
13455;SDS011;6800;50.940;6.940;2023-06-14T21:45:08;4.63;;;4.30;;
13455;SDS011;6800;50.940;6.940;2023-06-14T21:49:11;4.45;;;4.05;;
13455;SDS011;6800;50.940;6.940;2023-06-14T21:53:13;4.35;;;3.95;;
13455;SDS011;6800;50.940;6.940;2023-06-14T21:57:14;4.05;;;3.75;;
13455;SDS011;6800;50.940;6.940;2023-06-14T22:01:15;3.63;;;3.42;;
13455;SDS011;6800;50.940;6.940;2023-06-14T22:05:17;3.60;;;3.25;;
13455;SDS011;6800;50.940;6.940;2023-06-14T22:09:18;5.57;;;4.20;;
13455;SDS011;6800;50.940;6.940;2023-06-14T22:13:21;6.38;;;4.40;;
13455;SDS011;6800;50.940;6.940;2023-06-14T22:17:23;4.93;;;4.60;;
13455;SDS011;6800;50.940;6.940;2023-06-14T22:21:25;5.50;;;5.07;;
13455;SDS011;6800;50.940;6.940;2023-06-14T22:25:27;4.85;;;4.55;;
13455;SDS011;6800;50.940;6.940;2023-06-14T22:29:28;5.00;;;4.03;;
13455;SDS011;6800;50.940;6.940;2023-06-14T22:33:31;4.10;;;3.80;;
13455;SDS011;6800;50.940;6.940;2023-06-14T22:37:33;4.32;;;3.13;;
13455;SDS011;6800;50.940;6.940;2023-06-14T22:41:38;3.35;;;3.05;;
13455;SDS011;6800;50.940;6.940;2023-06-14T22:45:41;4.22;;;3.92;;
13455;SDS011;6800;50.940;6.940;2023-06-14T22:49:43;5.72;;;5.20;;
13455;SDS011;6800;50.940;6.940;2023-06-14T22:54:08;4.95;;;4.65;;
13455;SDS011;6800;50.940;6.940;2023-06-14T22:58:09;4.50;;;4.30;;
13455;SDS011;6800;50.940;6.940;2023-06-14T23:02:15;4.25;;;4.05;;
13455;SDS011;6800;50.940;6.940;2023-06-14T23:06:17;4.47;;;4.07;;
13455;SDS011;6800;50.940;6.940;2023-06-14T23:10:26;3.70;;;3.50;;
13455;SDS011;6800;50.940;6.940;2023-06-14T23:14:28;3.38;;;3.17;;
13455;SDS011;6800;50.940;6.940;2023-06-14T23:18:30;3.45;;;3.15;;
13455;SDS011;6800;50.940;6.940;2023-06-14T23:22:31;4.03;;;2.90;;
13455;SDS011;6800;50.940;6.940;2023-06-14T23:26:36;3.30;;;2.97;;
13455;SDS011;6800;50.940;6.940;2023-06-14T23:30:37;3.05;;;2.85;;
13455;SDS011;6800;50.940;6.940;2023-06-14T23:34:39;3.05;;;2.65;;
13455;SDS011;6800;50.940;6.940;2023-06-14T23:38:40;3.53;;;2.80;;
13455;SDS011;6800;50.940;6.940;2023-06-14T23:42:48;3.88;;;2.88;;
13455;SDS011;6800;50.940;6.940;2023-06-14T23:46:51;2.75;;;2.55;;
13455;SDS011;6800;50.940;6.940;2023-06-14T23:50:57;2.42;;;2.33;;
13455;SDS011;6800;50.940;6.940;2023-06-14T23:54:59;3.90;;;2.90;;
13455;SDS011;6800;50.940;6.940;2023-06-14T23:59:03;2.75;;;2.55;;
